Aérodrome :
LOGIN :

S'inscrire | Disclaimer

   EN    FR    IT 

 










Légende :    VFR   VFR Marginal   IFR   IFR Intensif   IFR Très Intensif
Visi : 
Plafond : 
>= 8 km
>= 3000ft
5 à 8 km
1000 à 3000 ft
1500m à 5 km
500 à 1000 ft
800 à 1500m
200 à 500 ft
< 800m
< 200 ft
Symboles :   Orages  Brouillard  Fortes neiges  Fortes précipitations  Vent > 20 kt
SIGMETs :   Divers  Orages  Givrage  Turbulence  Onde Orograph.  Cendres Volcan.







- Altitude de l'aérodrome : 844 ft
- Code IATA : OSR


LKMT - Ostrava-Mosnov

DERNIER METAR :
  • 231800Z 24015KT 7000 FEW008 05/04 Q1016 NOSIG

METARs EXPIRÉS :
  • 231730Z 23017KT 7000 SCT008 05/04 Q1016 NOSIG
  • 231700Z 23014KT 5000 BR SCT008 05/04 Q1016 NOSIG
  • 231630Z 23015KT 5000 BR SCT008 05/04 Q1016 NOSIG
  • 231600Z 23018KT 4000 BR OVC006 05/05 Q1015 NOSIG
  • 231530Z 23019KT 4000 BR OVC006 05/05 Q1015 NOSIG

TAF TAF LKMT
Valide du 23 à 18h jusqu'au 25 à 00h UTC


231700Z 2318/2500 22010KT 5000 BR BKN010
TEMPO 2318/2500 23010G21KT
TEMPO 2318/2408 3000 BR BKN006
PROB30
TEMPO 2402/2407 1500 BR BKN004
BECMG 2410/2412 9999 SCT009
BECMG 2415/2418 CAVOK
Pas de NOTAMs connus pour ce terrain.



MET'MAP, la Météo Aéronautique d'un coup d'oeil ! - Copyright ORBIFLY Décembre 2007 - Disclaimer

ORBIFLY MET'MAP TEAM :

Programmation & Développement : Alexandra Zaïnal
Conception & Développement : Baudouin d'Aumeries
Co-Programmation & Développement : Marc-Olivier Méhu
Soutien technique & logistique : Manuel Goepfert

Contact : metmap@orbifly.com




SOURCES & CREDITS :

   NOAA